PWSweather.com
Personal Weather Stations
Station Observations
HESKRFRR38
Schwerin, Germany, Klein RogahnDE 19073

Schwerin, GermanyKlein RogahnDE 19073

Lat: 53.6059537, Lon: 11.3412162

Elevation: 167.3226

Station Type: VantagePro2

Latest ConditionsUpdated 2:30:00 PM GMT+01:01 Thursday, Apr 18, 2019
Currently Today's Max Today's Min Today's Average
Temperature 69.5°F20.8°C 69.5°F20.8°C 40.1°F4.5°C 51.4°F10.8°C
Dew Point 40.6°F4.8°C 47.4°F8.6°C 35.7°F2.1°C 39.8°F4.3°C
Winds 9.0 mph ENE14.5 kmh ENE 11.0 mph -17.7 kmh - - 4.1 mph 6.6 kmh
Wind Gusts 16.0 mph25.7 kmh 19.0 mph30.6 kmh - -
Humidity 35% 85% 34% 67%
Pressure 30.39 in1029.1 mb 30.43 in1030.5 mb 30.37 in1028.4 mb -
Hour Temp Dew Point Humidity Winds Wind Gusts Pressure Precip Precip Rate Daily Precip Total
02:30 PM 69.5°F20.8°C 40.6°F4.8°C 35% 9.0 mph ENE14.5 kmh ENE 16.0 mph25.7 kmh 30.39 in1029.1 mb 0.00 in0.0 mm 0.00 in0.0 mm 0.00 in0.0 mm
02:25 PM 69.0°F20.6°C 40.9°F4.9°C 36% 7.0 mph ENE11.3 kmh ENE 14.0 mph22.5 kmh 30.39 in1029.1 mb 0.00 in0.0 mm 0.00 in0.0 mm 0.00 in0.0 mm
02:20 PM 68.3°F20.2°C 40.3°F4.6°C 36% 8.0 mph ENE12.9 kmh ENE 14.0 mph22.5 kmh 30.39 in1029.1 mb 0.00 in0.0 mm 0.00 in0.0 mm 0.00 in0.0 mm
02:15 PM 68.5°F20.3°C 39.0°F3.9°C 34% 9.0 mph E14.5 kmh E 16.0 mph25.7 kmh 30.39 in1029.1 mb 0.00 in0.0 mm 0.00 in0.0 mm 0.00 in0.0 mm
02:10 PM 69.0°F20.6°C 40.9°F4.9°C 36% 8.0 mph ENE12.9 kmh ENE 15.0 mph24.1 kmh 30.39 in1029.1 mb 0.00 in0.0 mm 0.00 in0.0 mm 0.00 in0.0 mm
02:05 PM 68.1°F20.1°C 38.7°F3.7°C 34% 8.0 mph E12.9 kmh E 14.0 mph22.5 kmh 30.39 in1029.1 mb 0.00 in0.0 mm 0.00 in0.0 mm 0.00 in0.0 mm
02:00 PM 68.9°F20.5°C 39.4°F4.1°C 34% 11.0 mph ENE17.7 kmh ENE 19.0 mph30.6 kmh 30.39 in1029.1 mb 0.00 in0.0 mm 0.00 in0.0 mm 0.00 in0.0 mm
01:55 PM 68.6°F20.3°C 39.8°F4.3°C 35% 11.0 mph ENE17.7 kmh ENE 17.0 mph27.4 kmh 30.39 in1029.1 mb 0.00 in0.0 mm 0.00 in0.0 mm 0.00 in0.0 mm
01:50 PM 68.7°F20.4°C 39.9°F4.4°C 35% 11.0 mph ENE17.7 kmh ENE 18.0 mph29.0 kmh 30.39 in1029.1 mb 0.00 in0.0 mm 0.00 in0.0 mm 0.00 in0.0 mm
01:45 PM 68.8°F20.4°C 42.1°F5.6°C 38% 9.0 mph ENE14.5 kmh ENE 18.0 mph29.0 kmh 30.39 in1029.1 mb 0.00 in0.0 mm 0.00 in0.0 mm 0.00 in0.0 mm
01:40 PM 68.5°F20.3°C 39.8°F4.3°C 35% 9.0 mph ENE14.5 kmh ENE 16.0 mph25.7 kmh 30.40 in1029.5 mb 0.00 in0.0 mm 0.00 in0.0 mm 0.00 in0.0 mm
01:35 PM 68.5°F20.3°C 41.9°F5.5°C 38% 8.0 mph E12.9 kmh E 15.0 mph24.1 kmh 30.40 in1029.5 mb 0.00 in0.0 mm 0.00 in0.0 mm 0.00 in0.0 mm
01:30 PM 68.5°F20.3°C 40.5°F4.7°C 36% 10.0 mph E16.1 kmh E 17.0 mph27.4 kmh 30.40 in1029.5 mb 0.00 in0.0 mm 0.00 in0.0 mm 0.00 in0.0 mm
01:25 PM 68.8°F20.4°C 40.0°F4.4°C 35% 8.0 mph E12.9 kmh E 15.0 mph24.1 kmh 30.40 in1029.5 mb 0.00 in0.0 mm 0.00 in0.0 mm 0.00 in0.0 mm
01:20 PM 68.6°F20.3°C 40.6°F4.8°C 36% 10.0 mph ENE16.1 kmh ENE 17.0 mph27.4 kmh 30.40 in1029.5 mb 0.00 in0.0 mm 0.00 in0.0 mm 0.00 in0.0 mm
01:15 PM 68.5°F20.3°C 40.5°F4.7°C 36% 9.0 mph ENE14.5 kmh ENE 19.0 mph30.6 kmh 30.39 in1029.1 mb 0.00 in0.0 mm 0.00 in0.0 mm 0.00 in0.0 mm
01:10 PM 68.0°F20.0°C 39.3°F4.1°C 35% 7.0 mph ESE11.3 kmh ESE 14.0 mph22.5 kmh 30.40 in1029.5 mb 0.00 in0.0 mm 0.00 in0.0 mm 0.00 in0.0 mm
01:05 PM 67.9°F19.9°C 42.0°F5.6°C 39% 11.0 mph ENE17.7 kmh ENE 15.0 mph24.1 kmh 30.40 in1029.5 mb 0.00 in0.0 mm 0.00 in0.0 mm 0.00 in0.0 mm
01:00 PM 67.5°F19.7°C 42.3°F5.7°C 40% 8.0 mph NE12.9 kmh NE 14.0 mph22.5 kmh 30.40 in1029.5 mb 0.00 in0.0 mm 0.00 in0.0 mm 0.00 in0.0 mm
12:55 PM 68.1°F20.1°C 42.9°F6.1°C 40% 10.0 mph ENE16.1 kmh ENE 16.0 mph25.7 kmh 30.40 in1029.5 mb 0.00 in0.0 mm 0.00 in0.0 mm 0.00 in0.0 mm
12:50 PM 67.8°F19.9°C 43.9°F6.6°C 42% 7.0 mph ENE11.3 kmh ENE 12.0 mph19.3 kmh 30.40 in1029.5 mb 0.00 in0.0 mm 0.00 in0.0 mm 0.00 in0.0 mm
12:45 PM 68.0°F20.0°C 44.7°F7.1°C 43% 9.0 mph ENE14.5 kmh ENE 17.0 mph27.4 kmh 30.40 in1029.5 mb 0.00 in0.0 mm 0.00 in0.0 mm 0.00 in0.0 mm
12:40 PM 67.9°F19.9°C 44.6°F7.0°C 43% 9.0 mph ENE14.5 kmh ENE 17.0 mph27.4 kmh 30.41 in1029.8 mb 0.00 in0.0 mm 0.00 in0.0 mm 0.00 in0.0 mm
12:35 PM 67.4°F19.7°C 43.5°F6.4°C 42% 7.0 mph ENE11.3 kmh ENE 15.0 mph24.1 kmh 30.41 in1029.8 mb 0.00 in0.0 mm 0.00 in0.0 mm 0.00 in0.0 mm
12:30 PM 67.7°F19.8°C 43.8°F6.6°C 42% 8.0 mph NE12.9 kmh NE 15.0 mph24.1 kmh 30.41 in1029.8 mb 0.00 in0.0 mm 0.00 in0.0 mm 0.00 in0.0 mm
12:25 PM 67.1°F19.5°C 44.5°F6.9°C 44% 9.0 mph ENE14.5 kmh ENE 15.0 mph24.1 kmh 30.41 in1029.8 mb 0.00 in0.0 mm 0.00 in0.0 mm 0.00 in0.0 mm
12:20 PM 66.8°F19.3°C 44.2°F6.8°C 44% 7.0 mph ENE11.3 kmh ENE 14.0 mph22.5 kmh 30.41 in1029.8 mb 0.00 in0.0 mm 0.00 in0.0 mm 0.00 in0.0 mm
12:15 PM 67.1°F19.5°C 44.5°F6.9°C 44% 7.0 mph ENE11.3 kmh ENE 14.0 mph22.5 kmh 30.41 in1029.8 mb 0.00 in0.0 mm 0.00 in0.0 mm 0.00 in0.0 mm
12:10 PM 67.4°F19.7°C 44.7°F7.1°C 44% 4.0 mph ENE6.4 kmh ENE 9.0 mph14.5 kmh 30.41 in1029.8 mb 0.00 in0.0 mm 0.00 in0.0 mm 0.00 in0.0 mm
12:05 PM 66.6°F19.2°C 45.7°F7.6°C 47% 6.0 mph ENE9.7 kmh ENE 12.0 mph19.3 kmh 30.41 in1029.8 mb 0.00 in0.0 mm 0.00 in0.0 mm 0.00 in0.0 mm
12:00 PM 65.5°F18.6°C 45.3°F7.4°C 48% 7.0 mph ENE11.3 kmh ENE 12.0 mph19.3 kmh 30.41 in1029.8 mb 0.00 in0.0 mm 0.00 in0.0 mm 0.00 in0.0 mm
11:55 AM 65.6°F18.7°C 44.8°F7.1°C 47% 9.0 mph ENE14.5 kmh ENE 13.0 mph20.9 kmh 30.41 in1029.8 mb 0.00 in0.0 mm 0.00 in0.0 mm 0.00 in0.0 mm
11:50 AM 66.0°F18.9°C 46.3°F7.9°C 49% 5.0 mph ENE8.0 kmh ENE 10.0 mph16.1 kmh 30.42 in1030.1 mb 0.00 in0.0 mm 0.00 in0.0 mm 0.00 in0.0 mm
11:45 AM 66.2°F19.0°C 47.0°F8.3°C 50% 4.0 mph ENE6.4 kmh ENE 10.0 mph16.1 kmh 30.42 in1030.1 mb 0.00 in0.0 mm 0.00 in0.0 mm 0.00 in0.0 mm
11:40 AM 65.1°F18.4°C 46.0°F7.8°C 50% 4.0 mph ENE6.4 kmh ENE 12.0 mph19.3 kmh 30.42 in1030.1 mb 0.00 in0.0 mm 0.00 in0.0 mm 0.00 in0.0 mm
11:35 AM 64.9°F18.3°C 45.3°F7.4°C 49% 7.0 mph ENE11.3 kmh ENE 11.0 mph17.7 kmh 30.42 in1030.1 mb 0.00 in0.0 mm 0.00 in0.0 mm 0.00 in0.0 mm
11:30 AM 64.9°F18.3°C 47.4°F8.6°C 53% 3.0 mph NE4.8 kmh NE 9.0 mph14.5 kmh 30.42 in1030.1 mb 0.00 in0.0 mm 0.00 in0.0 mm 0.00 in0.0 mm
11:25 AM 63.9°F17.7°C 46.4°F8.0°C 53% 5.0 mph ENE8.0 kmh ENE 9.0 mph14.5 kmh 30.42 in1030.1 mb 0.00 in0.0 mm 0.00 in0.0 mm 0.00 in0.0 mm
11:20 AM 63.6°F17.6°C 45.1°F7.3°C 51% 5.0 mph NE8.0 kmh NE 11.0 mph17.7 kmh 30.42 in1030.1 mb 0.00 in0.0 mm 0.00 in0.0 mm 0.00 in0.0 mm
11:15 AM 63.9°F17.7°C 45.4°F7.4°C 51% 5.0 mph NE8.0 kmh NE 10.0 mph16.1 kmh 30.42 in1030.1 mb 0.00 in0.0 mm 0.00 in0.0 mm 0.00 in0.0 mm
11:10 AM 64.0°F17.8°C 45.0°F7.2°C 50% 4.0 mph NNE6.4 kmh NNE 9.0 mph14.5 kmh 30.42 in1030.1 mb 0.00 in0.0 mm 0.00 in0.0 mm 0.00 in0.0 mm
11:05 AM 63.2°F17.3°C 46.8°F8.2°C 55% 5.0 mph ENE8.0 kmh ENE 10.0 mph16.1 kmh 30.43 in1030.5 mb 0.00 in0.0 mm 0.00 in0.0 mm 0.00 in0.0 mm
11:00 AM 62.4°F16.9°C 45.0°F7.2°C 53% 4.0 mph NE6.4 kmh NE 9.0 mph14.5 kmh 30.43 in1030.5 mb 0.00 in0.0 mm 0.00 in0.0 mm 0.00 in0.0 mm
10:55 AM 62.3°F16.8°C 46.4°F8.0°C 56% 3.0 mph ENE4.8 kmh ENE 9.0 mph14.5 kmh 30.43 in1030.5 mb 0.00 in0.0 mm 0.00 in0.0 mm 0.00 in0.0 mm
10:50 AM 62.2°F16.8°C 44.9°F7.2°C 53% 4.0 mph ENE6.4 kmh ENE 9.0 mph14.5 kmh 30.43 in1030.5 mb 0.00 in0.0 mm 0.00 in0.0 mm 0.00 in0.0 mm
10:45 AM 62.8°F17.1°C 44.9°F7.2°C 52% 4.0 mph NNE6.4 kmh NNE 9.0 mph14.5 kmh 30.43 in1030.5 mb 0.00 in0.0 mm 0.00 in0.0 mm 0.00 in0.0 mm
10:40 AM 63.0°F17.2°C 46.6°F8.1°C 55% 4.0 mph NE6.4 kmh NE 10.0 mph16.1 kmh 30.43 in1030.5 mb 0.00 in0.0 mm 0.00 in0.0 mm 0.00 in0.0 mm
10:35 AM 61.0°F16.1°C 45.7°F7.6°C 57% 3.0 mph NE4.8 kmh NE 11.0 mph17.7 kmh 30.43 in1030.5 mb 0.00 in0.0 mm 0.00 in0.0 mm 0.00 in0.0 mm
10:30 AM 61.1°F16.2°C 45.7°F7.6°C 57% 2.0 mph NE3.2 kmh NE 6.0 mph9.7 kmh 30.43 in1030.5 mb 0.00 in0.0 mm 0.00 in0.0 mm 0.00 in0.0 mm
10:25 AM 61.3°F16.3°C 45.0°F7.2°C 55% 5.0 mph NE8.0 kmh NE 10.0 mph16.1 kmh 30.43 in1030.5 mb 0.00 in0.0 mm 0.00 in0.0 mm 0.00 in0.0 mm
10:20 AM 60.5°F15.8°C 44.2°F6.8°C 55% 4.0 mph NE6.4 kmh NE 10.0 mph16.1 kmh 30.43 in1030.5 mb 0.00 in0.0 mm 0.00 in0.0 mm 0.00 in0.0 mm
10:15 AM 59.9°F15.5°C 45.1°F7.3°C 58% 4.0 mph ENE6.4 kmh ENE 9.0 mph14.5 kmh 30.43 in1030.5 mb 0.00 in0.0 mm 0.00 in0.0 mm 0.00 in0.0 mm
10:10 AM 60.0°F15.6°C 45.2°F7.3°C 58% 3.0 mph ENE4.8 kmh ENE 7.0 mph11.3 kmh 30.43 in1030.5 mb 0.00 in0.0 mm 0.00 in0.0 mm 0.00 in0.0 mm
10:05 AM 60.2°F15.7°C 44.9°F7.2°C 57% 3.0 mph NE4.8 kmh NE 7.0 mph11.3 kmh 30.43 in1030.5 mb 0.00 in0.0 mm 0.00 in0.0 mm 0.00 in0.0 mm
10:00 AM 58.9°F14.9°C 44.1°F6.7°C 58% 3.0 mph NE4.8 kmh NE 7.0 mph11.3 kmh 30.43 in1030.5 mb 0.00 in0.0 mm 0.00 in0.0 mm 0.00 in0.0 mm
09:55 AM 58.7°F14.8°C 44.4°F6.9°C 59% 4.0 mph NE6.4 kmh NE 8.0 mph12.9 kmh 30.43 in1030.5 mb 0.00 in0.0 mm 0.00 in0.0 mm 0.00 in0.0 mm
09:50 AM 58.2°F14.6°C 43.5°F6.4°C 58% 4.0 mph ENE6.4 kmh ENE 10.0 mph16.1 kmh 30.43 in1030.5 mb 0.00 in0.0 mm 0.00 in0.0 mm 0.00 in0.0 mm
09:45 AM 58.1°F14.5°C 43.4°F6.3°C 58% 5.0 mph ENE8.0 kmh ENE 11.0 mph17.7 kmh 30.43 in1030.5 mb 0.00 in0.0 mm 0.00 in0.0 mm 0.00 in0.0 mm
09:40 AM 57.7°F14.3°C 43.0°F6.1°C 58% 3.0 mph E4.8 kmh E 7.0 mph11.3 kmh 30.43 in1030.5 mb 0.00 in0.0 mm 0.00 in0.0 mm 0.00 in0.0 mm
09:35 AM 57.1°F13.9°C 44.6°F7.0°C 63% 3.0 mph ENE4.8 kmh ENE 8.0 mph12.9 kmh 30.43 in1030.5 mb 0.00 in0.0 mm 0.00 in0.0 mm 0.00 in0.0 mm
09:30 AM 56.7°F13.7°C 43.4°F6.3°C 61% 2.0 mph ENE3.2 kmh ENE 4.0 mph6.4 kmh 30.43 in1030.5 mb 0.00 in0.0 mm 0.00 in0.0 mm 0.00 in0.0 mm
09:25 AM 56.6°F13.7°C 44.2°F6.8°C 63% 2.0 mph NE3.2 kmh NE 5.0 mph8.0 kmh 30.43 in1030.5 mb 0.00 in0.0 mm 0.00 in0.0 mm 0.00 in0.0 mm
09:20 AM 55.7°F13.2°C 43.3°F6.3°C 63% 2.0 mph NE3.2 kmh NE 5.0 mph8.0 kmh 30.43 in1030.5 mb 0.00 in0.0 mm 0.00 in0.0 mm 0.00 in0.0 mm
09:15 AM 54.7°F12.6°C 42.8°F6.0°C 64% 3.0 mph ENE4.8 kmh ENE 6.0 mph9.7 kmh 30.43 in1030.5 mb 0.00 in0.0 mm 0.00 in0.0 mm 0.00 in0.0 mm
09:10 AM 54.6°F12.6°C 42.3°F5.7°C 63% 3.0 mph ENE4.8 kmh ENE 5.0 mph8.0 kmh 30.43 in1030.5 mb 0.00 in0.0 mm 0.00 in0.0 mm 0.00 in0.0 mm
09:05 AM 54.7°F12.6°C 42.8°F6.0°C 64% 3.0 mph E4.8 kmh E 8.0 mph12.9 kmh 30.42 in1030.1 mb 0.00 in0.0 mm 0.00 in0.0 mm 0.00 in0.0 mm
09:00 AM 54.2°F12.3°C 41.9°F5.5°C 63% 2.0 mph ENE3.2 kmh ENE 8.0 mph12.9 kmh 30.43 in1030.5 mb 0.00 in0.0 mm 0.00 in0.0 mm 0.00 in0.0 mm
08:55 AM 54.5°F12.5°C 42.6°F5.9°C 64% 3.0 mph NE4.8 kmh NE 7.0 mph11.3 kmh 30.43 in1030.5 mb 0.00 in0.0 mm 0.00 in0.0 mm 0.00 in0.0 mm
08:50 AM 53.4°F11.9°C 41.9°F5.5°C 65% 5.0 mph E8.0 kmh E 10.0 mph16.1 kmh 30.43 in1030.5 mb 0.00 in0.0 mm 0.00 in0.0 mm 0.00 in0.0 mm
08:45 AM 53.3°F11.8°C 42.2°F5.7°C 66% 3.0 mph E4.8 kmh E 7.0 mph11.3 kmh 30.42 in1030.1 mb 0.00 in0.0 mm 0.00 in0.0 mm 0.00 in0.0 mm
08:40 AM 52.0°F11.1°C 41.0°F5.0°C 66% 4.0 mph ENE6.4 kmh ENE 8.0 mph12.9 kmh 30.42 in1030.1 mb 0.00 in0.0 mm 0.00 in0.0 mm 0.00 in0.0 mm
08:35 AM 51.5°F10.8°C 40.5°F4.7°C 66% 7.0 mph ENE11.3 kmh ENE 11.0 mph17.7 kmh 30.42 in1030.1 mb 0.00 in0.0 mm 0.00 in0.0 mm 0.00 in0.0 mm
08:30 AM 51.0°F10.6°C 40.4°F4.7°C 67% 6.0 mph ENE9.7 kmh ENE 10.0 mph16.1 kmh 30.42 in1030.1 mb 0.00 in0.0 mm 0.00 in0.0 mm 0.00 in0.0 mm
08:25 AM 51.0°F10.6°C 40.4°F4.7°C 67% 4.0 mph E6.4 kmh E 9.0 mph14.5 kmh 30.42 in1030.1 mb 0.00 in0.0 mm 0.00 in0.0 mm 0.00 in0.0 mm
08:20 AM 51.0°F10.6°C 41.2°F5.1°C 69% 3.0 mph ENE4.8 kmh ENE 6.0 mph9.7 kmh 30.42 in1030.1 mb 0.00 in0.0 mm 0.00 in0.0 mm 0.00 in0.0 mm
08:15 AM 50.3°F10.2°C 41.3°F5.2°C 71% 3.0 mph ENE4.8 kmh ENE 8.0 mph12.9 kmh 30.42 in1030.1 mb 0.00 in0.0 mm 0.00 in0.0 mm 0.00 in0.0 mm
08:10 AM 49.7°F9.8°C 41.0°F5.0°C 72% 3.0 mph E4.8 kmh E 9.0 mph14.5 kmh 30.42 in1030.1 mb 0.00 in0.0 mm 0.00 in0.0 mm 0.00 in0.0 mm
08:05 AM 49.1°F9.5°C 40.8°F4.9°C 73% 3.0 mph ENE4.8 kmh ENE 7.0 mph11.3 kmh 30.42 in1030.1 mb 0.00 in0.0 mm 0.00 in0.0 mm 0.00 in0.0 mm
08:00 AM 48.5°F9.2°C 39.9°F4.4°C 72% 4.0 mph ENE6.4 kmh ENE 8.0 mph12.9 kmh 30.42 in1030.1 mb 0.00 in0.0 mm 0.00 in0.0 mm 0.00 in0.0 mm
07:55 AM 48.4°F9.1°C 39.8°F4.3°C 72% 4.0 mph ENE6.4 kmh ENE 8.0 mph12.9 kmh 30.42 in1030.1 mb 0.00 in0.0 mm 0.00 in0.0 mm 0.00 in0.0 mm
07:50 AM 48.0°F8.9°C 39.8°F4.3°C 73% 3.0 mph ENE4.8 kmh ENE 8.0 mph12.9 kmh 30.42 in1030.1 mb 0.00 in0.0 mm 0.00 in0.0 mm 0.00 in0.0 mm
07:45 AM 47.6°F8.7°C 40.1°F4.5°C 75% 4.0 mph ENE6.4 kmh ENE 9.0 mph14.5 kmh 30.41 in1029.8 mb 0.00 in0.0 mm 0.00 in0.0 mm 0.00 in0.0 mm
07:40 AM 47.1°F8.4°C 39.6°F4.2°C 75% 5.0 mph ENE8.0 kmh ENE 10.0 mph16.1 kmh 30.41 in1029.8 mb 0.00 in0.0 mm 0.00 in0.0 mm 0.00 in0.0 mm
07:35 AM 46.9°F8.3°C 39.1°F3.9°C 74% 4.0 mph ENE6.4 kmh ENE 9.0 mph14.5 kmh 30.41 in1029.8 mb 0.00 in0.0 mm 0.00 in0.0 mm 0.00 in0.0 mm
07:30 AM 46.8°F8.2°C 39.6°F4.2°C 76% 3.0 mph ENE4.8 kmh ENE 8.0 mph12.9 kmh 30.41 in1029.8 mb 0.00 in0.0 mm 0.00 in0.0 mm 0.00 in0.0 mm
07:25 AM 46.4°F8.0°C 39.3°F4.1°C 76% 4.0 mph ENE6.4 kmh ENE 9.0 mph14.5 kmh 30.41 in1029.8 mb 0.00 in0.0 mm 0.00 in0.0 mm 0.00 in0.0 mm
07:20 AM 46.0°F7.8°C 38.9°F3.8°C 76% 6.0 mph ENE9.7 kmh ENE 11.0 mph17.7 kmh 30.41 in1029.8 mb 0.00 in0.0 mm 0.00 in0.0 mm 0.00 in0.0 mm
07:15 AM 46.0°F7.8°C 39.2°F4.0°C 77% 5.0 mph ENE8.0 kmh ENE 9.0 mph14.5 kmh 30.41 in1029.8 mb 0.00 in0.0 mm 0.00 in0.0 mm 0.00 in0.0 mm
07:10 AM 45.6°F7.6°C 38.8°F3.8°C 77% 5.0 mph ENE8.0 kmh ENE 9.0 mph14.5 kmh 30.41 in1029.8 mb 0.00 in0.0 mm 0.00 in0.0 mm 0.00 in0.0 mm
07:05 AM 45.4°F7.4°C 38.9°F3.8°C 78% 4.0 mph ENE6.4 kmh ENE 8.0 mph12.9 kmh 30.41 in1029.8 mb 0.00 in0.0 mm 0.00 in0.0 mm 0.00 in0.0 mm
07:00 AM 44.9°F7.2°C 38.5°F3.6°C 78% 5.0 mph ENE8.0 kmh ENE 9.0 mph14.5 kmh 30.41 in1029.8 mb 0.00 in0.0 mm 0.00 in0.0 mm 0.00 in0.0 mm
06:55 AM 44.7°F7.1°C 38.6°F3.7°C 79% 5.0 mph ENE8.0 kmh ENE 10.0 mph16.1 kmh 30.41 in1029.8 mb 0.00 in0.0 mm 0.00 in0.0 mm 0.00 in0.0 mm
06:50 AM 44.4°F6.9°C 38.3°F3.5°C 79% 4.0 mph ENE6.4 kmh ENE 8.0 mph12.9 kmh 30.41 in1029.8 mb 0.00 in0.0 mm 0.00 in0.0 mm 0.00 in0.0 mm
06:45 AM 44.0°F6.7°C 38.2°F3.4°C 80% 4.0 mph ENE6.4 kmh ENE 9.0 mph14.5 kmh 30.40 in1029.5 mb 0.00 in0.0 mm 0.00 in0.0 mm 0.00 in0.0 mm
06:40 AM 43.7°F6.5°C 38.3°F3.5°C 81% 4.0 mph E6.4 kmh E 9.0 mph14.5 kmh 30.40 in1029.5 mb 0.00 in0.0 mm 0.00 in0.0 mm 0.00 in0.0 mm
06:35 AM 43.4°F6.3°C 38.0°F3.3°C 81% 5.0 mph ENE8.0 kmh ENE 9.0 mph14.5 kmh 30.40 in1029.5 mb 0.00 in0.0 mm 0.00 in0.0 mm 0.00 in0.0 mm
06:30 AM 43.0°F6.1°C 37.9°F3.3°C 82% 4.0 mph ENE6.4 kmh ENE 9.0 mph14.5 kmh 30.40 in1029.5 mb 0.00 in0.0 mm 0.00 in0.0 mm 0.00 in0.0 mm
06:25 AM 42.6°F5.9°C 37.5°F3.1°C 82% 4.0 mph ENE6.4 kmh ENE 8.0 mph12.9 kmh 30.40 in1029.5 mb 0.00 in0.0 mm 0.00 in0.0 mm 0.00 in0.0 mm
06:20 AM 42.4°F5.8°C 37.6°F3.1°C 83% 4.0 mph ENE6.4 kmh ENE 8.0 mph12.9 kmh 30.40 in1029.5 mb 0.00 in0.0 mm 0.00 in0.0 mm 0.00 in0.0 mm
06:15 AM 42.0°F5.6°C 37.5°F3.1°C 84% 3.0 mph ENE4.8 kmh ENE 9.0 mph14.5 kmh 30.40 in1029.5 mb 0.00 in0.0 mm 0.00 in0.0 mm 0.00 in0.0 mm
06:10 AM 41.7°F5.4°C 37.2°F2.9°C 84% 4.0 mph ENE6.4 kmh ENE 8.0 mph12.9 kmh 30.40 in1029.5 mb 0.00 in0.0 mm 0.00 in0.0 mm 0.00 in0.0 mm
06:05 AM 41.3°F5.2°C 37.1°F2.8°C 85% 3.0 mph ENE4.8 kmh ENE 6.0 mph9.7 kmh 30.39 in1029.1 mb 0.00 in0.0 mm 0.00 in0.0 mm 0.00 in0.0 mm
06:00 AM 41.0°F5.0°C 36.8°F2.7°C 85% 3.0 mph ENE4.8 kmh ENE 7.0 mph11.3 kmh 30.39 in1029.1 mb 0.00 in0.0 mm 0.00 in0.0 mm 0.00 in0.0 mm
05:55 AM 40.9°F4.9°C 36.7°F2.6°C 85% 4.0 mph ENE6.4 kmh ENE 7.0 mph11.3 kmh 30.39 in1029.1 mb 0.00 in0.0 mm 0.00 in0.0 mm 0.00 in0.0 mm
05:50 AM 40.6°F4.8°C 36.4°F2.4°C 85% 4.0 mph ENE6.4 kmh ENE 8.0 mph12.9 kmh 30.39 in1029.1 mb 0.00 in0.0 mm 0.00 in0.0 mm 0.00 in0.0 mm
05:45 AM 40.3°F4.6°C 36.2°F2.3°C 85% 3.0 mph ENE4.8 kmh ENE 8.0 mph12.9 kmh 30.39 in1029.1 mb 0.00 in0.0 mm 0.00 in0.0 mm 0.00 in0.0 mm
05:40 AM 40.3°F4.6°C 36.2°F2.3°C 85% 3.0 mph ENE4.8 kmh ENE 6.0 mph9.7 kmh 30.39 in1029.1 mb 0.00 in0.0 mm 0.00 in0.0 mm 0.00 in0.0 mm
05:35 AM 40.4°F4.7°C 36.3°F2.4°C 85% 2.0 mph ENE3.2 kmh ENE 5.0 mph8.0 kmh 30.39 in1029.1 mb 0.00 in0.0 mm 0.00 in0.0 mm 0.00 in0.0 mm
05:30 AM 40.4°F4.7°C 36.3°F2.4°C 85% 3.0 mph ENE4.8 kmh ENE 6.0 mph9.7 kmh 30.39 in1029.1 mb 0.00 in0.0 mm 0.00 in0.0 mm 0.00 in0.0 mm
05:25 AM 40.3°F4.6°C 36.2°F2.3°C 85% 3.0 mph ENE4.8 kmh ENE 6.0 mph9.7 kmh 30.39 in1029.1 mb 0.00 in0.0 mm 0.00 in0.0 mm 0.00 in0.0 mm
05:20 AM 40.2°F4.6°C 36.1°F2.3°C 85% 3.0 mph NE4.8 kmh NE 6.0 mph9.7 kmh 30.38 in1028.8 mb 0.00 in0.0 mm 0.00 in0.0 mm 0.00 in0.0 mm
05:15 AM 40.3°F4.6°C 36.2°F2.3°C 85% 3.0 mph NE4.8 kmh NE 6.0 mph9.7 kmh 30.38 in1028.8 mb 0.00 in0.0 mm 0.00 in0.0 mm 0.00 in0.0 mm
05:10 AM 40.3°F4.6°C 36.2°F2.3°C 85% 2.0 mph NE3.2 kmh NE 5.0 mph8.0 kmh 30.38 in1028.8 mb 0.00 in0.0 mm 0.00 in0.0 mm 0.00 in0.0 mm
05:05 AM 40.2°F4.6°C 35.8°F2.1°C 84% 2.0 mph NE3.2 kmh NE 5.0 mph8.0 kmh 30.38 in1028.8 mb 0.00 in0.0 mm 0.00 in0.0 mm 0.00 in0.0 mm
05:00 AM 40.2°F4.6°C 35.8°F2.1°C 84% 3.0 mph ENE4.8 kmh ENE 6.0 mph9.7 kmh 30.38 in1028.8 mb 0.00 in0.0 mm 0.00 in0.0 mm 0.00 in0.0 mm
04:55 AM 40.1°F4.5°C 35.7°F2.1°C 84% 2.0 mph ENE3.2 kmh ENE 4.0 mph6.4 kmh 30.38 in1028.8 mb 0.00 in0.0 mm 0.00 in0.0 mm 0.00 in0.0 mm
04:50 AM 40.3°F4.6°C 35.9°F2.2°C 84% 1.0 mph ENE1.6 kmh ENE 4.0 mph6.4 kmh 30.38 in1028.8 mb 0.00 in0.0 mm 0.00 in0.0 mm 0.00 in0.0 mm
04:45 AM 40.4°F4.7°C 36.0°F2.2°C 84% 1.0 mph ENE1.6 kmh ENE 4.0 mph6.4 kmh 30.38 in1028.8 mb 0.00 in0.0 mm 0.00 in0.0 mm 0.00 in0.0 mm
04:40 AM 40.5°F4.7°C 35.8°F2.1°C 83% 1.0 mph NE1.6 kmh NE 4.0 mph6.4 kmh 30.38 in1028.8 mb 0.00 in0.0 mm 0.00 in0.0 mm 0.00 in0.0 mm
04:35 AM 40.6°F4.8°C 36.2°F2.3°C 84% 3.0 mph ENE4.8 kmh ENE 5.0 mph8.0 kmh 30.38 in1028.8 mb 0.00 in0.0 mm 0.00 in0.0 mm 0.00 in0.0 mm
04:30 AM 40.6°F4.8°C 36.2°F2.3°C 84% 3.0 mph NE4.8 kmh NE 6.0 mph9.7 kmh 30.38 in1028.8 mb 0.00 in0.0 mm 0.00 in0.0 mm 0.00 in0.0 mm
04:25 AM 40.7°F4.8°C 35.9°F2.2°C 83% 3.0 mph NE4.8 kmh NE 6.0 mph9.7 kmh 30.38 in1028.8 mb 0.00 in0.0 mm 0.00 in0.0 mm 0.00 in0.0 mm
04:20 AM 40.7°F4.8°C 35.9°F2.2°C 83% 3.0 mph NE4.8 kmh NE 7.0 mph11.3 kmh 30.38 in1028.8 mb 0.00 in0.0 mm 0.00 in0.0 mm 0.00 in0.0 mm
04:15 AM 40.7°F4.8°C 35.9°F2.2°C 83% 3.0 mph NE4.8 kmh NE 6.0 mph9.7 kmh 30.38 in1028.8 mb 0.00 in0.0 mm 0.00 in0.0 mm 0.00 in0.0 mm
04:10 AM 40.8°F4.9°C 36.0°F2.2°C 83% 3.0 mph NE4.8 kmh NE 7.0 mph11.3 kmh 30.38 in1028.8 mb 0.00 in0.0 mm 0.00 in0.0 mm 0.00 in0.0 mm
04:05 AM 40.9°F4.9°C 36.1°F2.3°C 83% 3.0 mph NE4.8 kmh NE 9.0 mph14.5 kmh 30.38 in1028.8 mb 0.00 in0.0 mm 0.00 in0.0 mm 0.00 in0.0 mm
04:00 AM 41.0°F5.0°C 36.2°F2.3°C 83% 3.0 mph NE4.8 kmh NE 7.0 mph11.3 kmh 30.38 in1028.8 mb 0.00 in0.0 mm 0.00 in0.0 mm 0.00 in0.0 mm
03:55 AM 41.1°F5.1°C 36.3°F2.4°C 83% 4.0 mph NE6.4 kmh NE 10.0 mph16.1 kmh 30.38 in1028.8 mb 0.00 in0.0 mm 0.00 in0.0 mm 0.00 in0.0 mm
03:50 AM 41.0°F5.0°C 36.2°F2.3°C 83% 3.0 mph NE4.8 kmh NE 7.0 mph11.3 kmh 30.38 in1028.8 mb 0.00 in0.0 mm 0.00 in0.0 mm 0.00 in0.0 mm
03:45 AM 41.1°F5.1°C 36.3°F2.4°C 83% 4.0 mph NE6.4 kmh NE 11.0 mph17.7 kmh 30.38 in1028.8 mb 0.00 in0.0 mm 0.00 in0.0 mm 0.00 in0.0 mm
03:40 AM 41.0°F5.0°C 36.2°F2.3°C 83% 4.0 mph NE6.4 kmh NE 10.0 mph16.1 kmh 30.38 in1028.8 mb 0.00 in0.0 mm 0.00 in0.0 mm 0.00 in0.0 mm
03:35 AM 40.9°F4.9°C 36.1°F2.3°C 83% 3.0 mph NE4.8 kmh NE 6.0 mph9.7 kmh 30.37 in1028.4 mb 0.00 in0.0 mm 0.00 in0.0 mm 0.00 in0.0 mm
03:30 AM 40.9°F4.9°C 36.1°F2.3°C 83% 4.0 mph NE6.4 kmh NE 8.0 mph12.9 kmh 30.37 in1028.4 mb 0.00 in0.0 mm 0.00 in0.0 mm 0.00 in0.0 mm
03:25 AM 40.9°F4.9°C 36.1°F2.3°C 83% 3.0 mph NE4.8 kmh NE 8.0 mph12.9 kmh 30.37 in1028.4 mb 0.00 in0.0 mm 0.00 in0.0 mm 0.00 in0.0 mm
03:20 AM 41.1°F5.1°C 36.0°F2.2°C 82% 2.0 mph NE3.2 kmh NE 8.0 mph12.9 kmh 30.37 in1028.4 mb 0.00 in0.0 mm 0.00 in0.0 mm 0.00 in0.0 mm
03:15 AM 41.4°F5.2°C 36.3°F2.4°C 82% 2.0 mph NE3.2 kmh NE 9.0 mph14.5 kmh 30.37 in1028.4 mb 0.00 in0.0 mm 0.00 in0.0 mm 0.00 in0.0 mm
03:10 AM 41.3°F5.2°C 36.2°F2.3°C 82% 2.0 mph ENE3.2 kmh ENE 5.0 mph8.0 kmh 30.37 in1028.4 mb 0.00 in0.0 mm 0.00 in0.0 mm 0.00 in0.0 mm
03:05 AM 41.4°F5.2°C 36.3°F2.4°C 82% 3.0 mph NE4.8 kmh NE 8.0 mph12.9 kmh 30.37 in1028.4 mb 0.00 in0.0 mm 0.00 in0.0 mm 0.00 in0.0 mm
03:00 AM 41.6°F5.3°C 36.5°F2.5°C 82% 2.0 mph NE3.2 kmh NE 6.0 mph9.7 kmh 30.37 in1028.4 mb 0.00 in0.0 mm 0.00 in0.0 mm 0.00 in0.0 mm
02:55 AM 41.7°F5.4°C 36.6°F2.6°C 82% 2.0 mph NE3.2 kmh NE 6.0 mph9.7 kmh 30.37 in1028.4 mb 0.00 in0.0 mm 0.00 in0.0 mm 0.00 in0.0 mm
02:50 AM 41.7°F5.4°C 36.6°F2.6°C 82% 2.0 mph ENE3.2 kmh ENE 6.0 mph9.7 kmh 30.37 in1028.4 mb 0.00 in0.0 mm 0.00 in0.0 mm 0.00 in0.0 mm
02:45 AM 41.6°F5.3°C 36.5°F2.5°C 82% 2.0 mph ENE3.2 kmh ENE 7.0 mph11.3 kmh 30.37 in1028.4 mb 0.00 in0.0 mm 0.00 in0.0 mm 0.00 in0.0 mm
02:40 AM 41.6°F5.3°C 36.5°F2.5°C 82% 2.0 mph ENE3.2 kmh ENE 5.0 mph8.0 kmh 30.37 in1028.4 mb 0.00 in0.0 mm 0.00 in0.0 mm 0.00 in0.0 mm
02:35 AM 41.7°F5.4°C 36.6°F2.6°C 82% 2.0 mph NE3.2 kmh NE 5.0 mph8.0 kmh 30.37 in1028.4 mb 0.00 in0.0 mm 0.00 in0.0 mm 0.00 in0.0 mm
02:30 AM 41.7°F5.4°C 36.6°F2.6°C 82% 3.0 mph NE4.8 kmh NE 7.0 mph11.3 kmh 30.37 in1028.4 mb 0.00 in0.0 mm 0.00 in0.0 mm 0.00 in0.0 mm
02:25 AM 41.8°F5.4°C 36.4°F2.4°C 81% 1.0 mph ENE1.6 kmh ENE 4.0 mph6.4 kmh 30.37 in1028.4 mb 0.00 in0.0 mm 0.00 in0.0 mm 0.00 in0.0 mm
02:20 AM 42.0°F5.6°C 36.9°F2.7°C 82% 2.0 mph NE3.2 kmh NE 5.0 mph8.0 kmh 30.37 in1028.4 mb 0.00 in0.0 mm 0.00 in0.0 mm 0.00 in0.0 mm
02:15 AM 41.9°F5.5°C 36.8°F2.7°C 82% 2.0 mph NE3.2 kmh NE 7.0 mph11.3 kmh 30.37 in1028.4 mb 0.00 in0.0 mm 0.00 in0.0 mm 0.00 in0.0 mm
02:10 AM 42.0°F5.6°C 36.9°F2.7°C 82% 2.0 mph ENE3.2 kmh ENE 6.0 mph9.7 kmh 30.37 in1028.4 mb 0.00 in0.0 mm 0.00 in0.0 mm 0.00 in0.0 mm
02:05 AM 41.8°F5.4°C 36.7°F2.6°C 82% 2.0 mph ENE3.2 kmh ENE 6.0 mph9.7 kmh 30.37 in1028.4 mb 0.00 in0.0 mm 0.00 in0.0 mm 0.00 in0.0 mm
02:00 AM 41.6°F5.3°C 36.5°F2.5°C 82% 2.0 mph NE3.2 kmh NE 6.0 mph9.7 kmh 30.37 in1028.4 mb 0.00 in0.0 mm 0.00 in0.0 mm 0.00 in0.0 mm
01:55 AM 41.5°F5.3°C 36.1°F2.3°C 81% 2.0 mph NE3.2 kmh NE 6.0 mph9.7 kmh 30.37 in1028.4 mb 0.00 in0.0 mm 0.00 in0.0 mm 0.00 in0.0 mm
01:50 AM 41.5°F5.3°C 36.1°F2.3°C 81% 2.0 mph NE3.2 kmh NE 5.0 mph8.0 kmh 30.37 in1028.4 mb 0.00 in0.0 mm 0.00 in0.0 mm 0.00 in0.0 mm
01:45 AM 41.7°F5.4°C 36.0°F2.2°C 80% 2.0 mph NE3.2 kmh NE 5.0 mph8.0 kmh 30.37 in1028.4 mb 0.00 in0.0 mm 0.00 in0.0 mm 0.00 in0.0 mm
01:40 AM 41.9°F5.5°C 36.2°F2.3°C 80% 2.0 mph NE3.2 kmh NE 5.0 mph8.0 kmh 30.37 in1028.4 mb 0.00 in0.0 mm 0.00 in0.0 mm 0.00 in0.0 mm
01:35 AM 42.1°F5.6°C 36.1°F2.3°C 79% 2.0 mph NE3.2 kmh NE 6.0 mph9.7 kmh 30.37 in1028.4 mb 0.00 in0.0 mm 0.00 in0.0 mm 0.00 in0.0 mm
01:30 AM 42.5°F5.8°C 36.5°F2.5°C 79% 2.0 mph NE3.2 kmh NE 6.0 mph9.7 kmh 30.37 in1028.4 mb 0.00 in0.0 mm 0.00 in0.0 mm 0.00 in0.0 mm
01:25 AM 42.8°F6.0°C 36.4°F2.4°C 78% 2.0 mph NE3.2 kmh NE 7.0 mph11.3 kmh 30.37 in1028.4 mb 0.00 in0.0 mm 0.00 in0.0 mm 0.00 in0.0 mm
01:20 AM 43.1°F6.2°C 36.4°F2.4°C 77% 2.0 mph NE3.2 kmh NE 5.0 mph8.0 kmh 30.37 in1028.4 mb 0.00 in0.0 mm 0.00 in0.0 mm 0.00 in0.0 mm
01:15 AM 43.4°F6.3°C 36.7°F2.6°C 77% 2.0 mph NE3.2 kmh NE 9.0 mph14.5 kmh 30.37 in1028.4 mb 0.00 in0.0 mm 0.00 in0.0 mm 0.00 in0.0 mm
01:10 AM 43.7°F6.5°C 37.0°F2.8°C 77% 2.0 mph NE3.2 kmh NE 6.0 mph9.7 kmh 30.37 in1028.4 mb 0.00 in0.0 mm 0.00 in0.0 mm 0.00 in0.0 mm
01:05 AM 43.6°F6.4°C 37.2°F2.9°C 78% 2.0 mph ENE3.2 kmh ENE 5.0 mph8.0 kmh 30.37 in1028.4 mb 0.00 in0.0 mm 0.00 in0.0 mm 0.00 in0.0 mm
01:00 AM 43.7°F6.5°C 37.3°F2.9°C 78% 2.0 mph ENE3.2 kmh ENE 7.0 mph11.3 kmh 30.37 in1028.4 mb 0.00 in0.0 mm 0.00 in0.0 mm 0.00 in0.0 mm
12:55 AM 43.7°F6.5°C 37.3°F2.9°C 78% 2.0 mph ENE3.2 kmh ENE 6.0 mph9.7 kmh 30.37 in1028.4 mb 0.00 in0.0 mm 0.00 in0.0 mm 0.00 in0.0 mm
12:50 AM 43.8°F6.6°C 37.1°F2.8°C 77% 2.0 mph NE3.2 kmh NE 6.0 mph9.7 kmh 30.37 in1028.4 mb 0.00 in0.0 mm 0.00 in0.0 mm 0.00 in0.0 mm
12:45 AM 43.9°F6.6°C 37.2°F2.9°C 77% 1.0 mph ENE1.6 kmh ENE 4.0 mph6.4 kmh 30.37 in1028.4 mb 0.00 in0.0 mm 0.00 in0.0 mm 0.00 in0.0 mm
12:40 AM 43.9°F6.6°C 37.2°F2.9°C 77% 2.0 mph ENE3.2 kmh ENE 5.0 mph8.0 kmh 30.37 in1028.4 mb 0.00 in0.0 mm 0.00 in0.0 mm 0.00 in0.0 mm
12:35 AM 44.0°F6.7°C 37.3°F2.9°C 77% 1.0 mph NE1.6 kmh NE 4.0 mph6.4 kmh 30.37 in1028.4 mb 0.00 in0.0 mm 0.00 in0.0 mm 0.00 in0.0 mm
12:30 AM 44.1°F6.7°C 37.0°F2.8°C 76% 1.0 mph NE1.6 kmh NE 4.0 mph6.4 kmh 30.37 in1028.4 mb 0.00 in0.0 mm 0.00 in0.0 mm 0.00 in0.0 mm
12:25 AM 44.3°F6.8°C 37.2°F2.9°C 76% 2.0 mph NE3.2 kmh NE 4.0 mph6.4 kmh 30.37 in1028.4 mb 0.00 in0.0 mm 0.00 in0.0 mm 0.00 in0.0 mm
12:20 AM 44.4°F6.9°C 37.3°F2.9°C 76% 2.0 mph NE3.2 kmh NE 6.0 mph9.7 kmh 30.37 in1028.4 mb 0.00 in0.0 mm 0.00 in0.0 mm 0.00 in0.0 mm
12:15 AM 44.7°F7.1°C 37.3°F2.9°C 75% 2.0 mph NE3.2 kmh NE 5.0 mph8.0 kmh 30.37 in1028.4 mb 0.00 in0.0 mm 0.00 in0.0 mm 0.00 in0.0 mm
12:10 AM 44.9°F7.2°C 37.5°F3.1°C 75% 2.0 mph NE3.2 kmh NE 5.0 mph8.0 kmh 30.37 in1028.4 mb 0.00 in0.0 mm 0.00 in0.0 mm 0.00 in0.0 mm
12:05 AM 45.0°F7.2°C 37.2°F2.9°C 74% 2.0 mph NE3.2 kmh NE 6.0 mph9.7 kmh 30.37 in1028.4 mb 0.00 in0.0 mm 0.00 in0.0 mm 0.00 in0.0 mm
12:00 AM 45.2°F7.3°C 37.4°F3.0°C 74% 2.0 mph ENE3.2 kmh ENE 5.0 mph8.0 kmh 30.37 in1028.4 mb 0.00 in0.0 mm 0.00 in0.0 mm 0.00 in0.0 mm